Time;durP1;ratioP1;P1;durP2;ratioP2;P2;SDS_P1;SDS_P2;PMS_P1;PMS_P2;Temp;Humidity;BMP_temperature;BMP_pressure;BME280_temperature;BME280_humidity;BME280_pressure;Samples;Min_cycle;Max_cycle;Signal;HPM_P1;HPM_P2
2024/02/17 00:00:43;;;;;;;9.37;7.57;;;12.40;99.90;;;;;;4949210;29;20298;-76
2024/02/17 00:03:12;;;;;;;9.23;8.23;;;12.40;99.90;;;;;;4949130;29;20238;-76
2024/02/17 00:05:39;;;;;;;7.80;7.10;;;12.40;99.90;;;;;;4953824;28;20245;-76
2024/02/17 00:08:06;;;;;;;7.47;6.60;;;12.30;99.90;;;;;;4948770;28;20203;-76
2024/02/17 00:10:33;;;;;;;6.50;5.90;;;12.30;99.90;;;;;;4958194;28;20285;-76
2024/02/17 00:13:00;;;;;;;6.20;5.60;;;12.20;99.90;;;;;;4967380;28;20215;-76
2024/02/17 00:15:28;;;;;;;6.30;5.80;;;12.20;99.90;;;;;;4968015;28;20732;-76
2024/02/17 00:17:55;;;;;;;5.83;5.40;;;12.20;99.90;;;;;;4967997;28;20595;-76
2024/02/17 00:20:23;;;;;;;5.60;5.20;;;12.20;99.90;;;;;;4968429;28;20265;-76
2024/02/17 00:22:50;;;;;;;5.27;4.87;;;12.20;99.90;;;;;;4967696;28;20871;-76
2024/02/17 00:25:16;;;;;;;6.17;5.57;;;12.10;99.90;;;;;;4967762;28;20642;-76
2024/02/17 00:27:43;;;;;;;5.20;4.70;;;12.10;99.90;;;;;;4968052;28;20312;-76
2024/02/17 00:30:11;;;;;;;5.23;4.83;;;12.10;99.90;;;;;;4967616;28;20211;-76
2024/02/17 00:32:38;;;;;;;5.33;4.93;;;12.10;99.90;;;;;;4963620;28;20334;-76
2024/02/17 00:35:11;;;;;;;5.00;4.70;;;12.10;99.90;;;;;;4957645;28;20206;-76
2024/02/17 00:37:39;;;;;;;5.20;4.63;;;12.10;99.90;;;;;;4967968;28;20294;-76
2024/02/17 00:40:07;;;;;;;4.17;3.87;;;12.10;99.90;;;;;;4967598;28;20729;-75
2024/02/17 00:42:35;;;;;;;4.13;3.80;;;12.00;99.90;;;;;;4967450;28;20314;-76
2024/02/17 00:45:01;;;;;;;4.17;3.87;;;12.00;99.90;;;;;;4967783;28;20277;-76
2024/02/17 00:47:28;;;;;;;3.80;3.60;;;12.00;99.90;;;;;;4967969;28;20624;-76
2024/02/17 00:49:55;;;;;;;3.90;3.60;;;12.00;99.90;;;;;;4968081;28;20644;-76
2024/02/17 00:52:22;;;;;;;5.57;3.60;;;12.00;99.90;;;;;;4967994;28;20238;-76
2024/02/17 00:54:50;;;;;;;3.60;3.40;;;11.90;99.90;;;;;;4965787;28;20307;-76
2024/02/17 00:57:17;;;;;;;4.03;3.50;;;11.90;99.90;;;;;;4951252;28;20251;-76
2024/02/17 00:59:44;;;;;;;4.17;3.40;;;11.90;99.90;;;;;;4984650;28;20302;-76
2024/02/17 01:02:11;;;;;;;3.53;2.97;;;11.90;99.90;;;;;;4990731;28;20293;-76
2024/02/17 01:04:38;;;;;;;3.30;3.00;;;11.90;99.90;;;;;;4988642;28;20386;-76
2024/02/17 01:07:05;;;;;;;4.37;2.87;;;11.90;99.90;;;;;;4963496;28;20298;-76
2024/02/17 01:09:32;;;;;;;2.80;2.70;;;11.90;99.90;;;;;;4959713;28;20213;-76
2024/02/17 01:12:00;;;;;;;2.90;2.70;;;11.90;99.90;;;;;;4951776;28;20245;-76
2024/02/17 01:14:27;;;;;;;2.67;2.40;;;11.90;99.90;;;;;;4952006;28;20290;-73
2024/02/17 01:16:54;;;;;;;3.23;2.60;;;11.80;99.90;;;;;;4951660;28;20279;-73
2024/02/17 01:19:21;;;;;;;2.60;2.40;;;11.80;99.90;;;;;;4951623;28;20199;-73
2024/02/17 01:21:48;;;;;;;2.60;2.40;;;11.90;99.90;;;;;;4959567;28;20203;-73
2024/02/17 01:24:15;;;;;;;2.37;2.27;;;11.80;99.90;;;;;;4956721;28;20247;-73
2024/02/17 01:26:42;;;;;;;2.03;1.80;;;11.80;99.90;;;;;;4951510;28;20294;-73
2024/02/17 01:29:12;;;;;;;2.40;2.27;;;11.80;99.90;;;;;;4951507;28;20242;-73
2024/02/17 01:31:39;;;;;;;2.13;2.00;;;11.80;99.90;;;;;;4951242;28;20212;-73
2024/02/17 01:34:05;;;;;;;2.43;2.23;;;11.70;99.90;;;;;;4951104;28;20306;-73
2024/02/17 01:36:32;;;;;;;2.10;2.00;;;11.80;99.90;;;;;;4967944;28;20273;-73
2024/02/17 01:38:59;;;;;;;2.20;2.07;;;11.70;99.90;;;;;;4970705;28;20615;-73
2024/02/17 01:41:26;;;;;;;2.30;2.10;;;11.70;99.90;;;;;;4970130;28;20318;-75
2024/02/17 01:43:53;;;;;;;2.00;1.90;;;11.70;99.90;;;;;;4968423;28;20338;-75
2024/02/17 01:46:22;;;;;;;3.03;2.07;;;11.70;99.90;;;;;;4970723;28;20289;-75
2024/02/17 01:48:50;;;;;;;2.60;1.80;;;11.70;99.90;;;;;;4969259;28;20234;-75
2024/02/17 01:51:16;;;;;;;2.20;2.00;;;11.70;99.90;;;;;;4950429;28;20984;-75
2024/02/17 01:53:44;;;;;;;2.23;2.13;;;11.70;99.90;;;;;;4951233;28;20306;-76
2024/02/17 01:56:13;;;;;;;2.17;2.07;;;11.70;99.90;;;;;;4951523;28;20203;-76
2024/02/17 01:58:40;;;;;;;2.20;2.10;;;11.60;99.90;;;;;;4968861;28;20331;-75
2024/02/17 02:01:07;;;;;;;2.70;2.50;;;11.60;99.90;;;;;;4952268;28;20275;-74
2024/02/17 02:03:36;;;;;;;2.47;2.27;;;11.60;99.90;;;;;;4953758;28;20318;-75
2024/02/17 02:06:03;;;;;;;2.40;2.30;;;11.60;99.90;;;;;;4969050;28;20207;-75
2024/02/17 02:08:30;;;;;;;2.37;2.17;;;11.60;99.90;;;;;;4970426;28;20221;-75
2024/02/17 02:11:00;;;;;;;2.17;2.07;;;11.60;99.90;;;;;;4969942;28;20319;-75
2024/02/17 02:13:27;;;;;;;2.20;2.10;;;11.60;99.90;;;;;;4970462;28;20211;-75
2024/02/17 02:15:54;;;;;;;2.10;2.00;;;11.60;99.90;;;;;;4970210;28;20254;-75
2024/02/17 02:18:21;;;;;;;2.37;2.27;;;11.60;99.90;;;;;;4970243;28;20226;-75
2024/02/17 02:20:49;;;;;;;3.00;2.90;;;11.60;99.90;;;;;;4970275;28;20432;-75
2024/02/17 02:23:16;;;;;;;2.93;2.73;;;11.50;99.90;;;;;;4969393;28;20765;-77
2024/02/17 02:25:53;;;;;;;3.00;2.80;;;11.50;99.90;;;;;;4970364;28;20207;-76
2024/02/17 02:28:21;;;;;;;2.83;2.63;;;11.50;99.90;;;;;;4969564;28;20678;-76
2024/02/17 02:30:48;;;;;;;2.93;2.57;;;11.50;99.90;;;;;;4968636;28;20301;-75
2024/02/17 02:33:15;;;;;;;3.40;3.10;;;11.50;99.90;;;;;;4969427;28;20210;-74
2024/02/17 02:35:41;;;;;;;3.23;2.93;;;11.50;99.90;;;;;;4959269;28;20793;-74
2024/02/17 02:38:08;;;;;;;3.50;3.20;;;11.50;99.90;;;;;;4950115;28;20243;-75
2024/02/17 02:40:35;;;;;;;3.20;3.00;;;11.50;99.90;;;;;;4951873;28;20238;-75
2024/02/17 02:43:06;;;;;;;3.53;3.23;;;11.40;99.90;;;;;;4949756;28;20239;-74
2024/02/17 02:45:33;;;;;;;3.80;3.50;;;11.40;99.90;;;;;;4949924;28;20667;-74
2024/02/17 02:48:00;;;;;;;3.80;3.40;;;11.30;99.90;;;;;;4949646;28;20724;-74
2024/02/17 02:50:27;;;;;;;3.40;3.10;;;11.30;99.90;;;;;;4949916;28;20314;-75
2024/02/17 02:52:54;;;;;;;4.07;3.87;;;11.30;99.90;;;;;;4949732;28;20211;-76
2024/02/17 02:55:21;;;;;;;4.17;3.90;;;11.30;99.90;;;;;;4949738;28;20246;-74
2024/02/17 02:57:48;;;;;;;4.30;3.90;;;11.30;99.90;;;;;;4949853;28;20275;-74
2024/02/17 03:00:17;;;;;;;4.10;3.80;;;11.20;99.90;;;;;;4962129;28;20207;-75
2024/02/17 03:02:43;;;;;;;4.10;3.83;;;11.10;99.90;;;;;;4968812;28;20211;-74
2024/02/17 03:05:10;;;;;;;4.27;4.00;;;11.10;99.90;;;;;;4968996;28;20242;-75
2024/02/17 03:07:37;;;;;;;4.10;3.80;;;11.10;99.90;;;;;;4968213;28;20206;-74
2024/02/17 03:10:05;;;;;;;4.73;4.43;;;11.10;99.90;;;;;;4968709;28;21127;-74
2024/02/17 03:12:32;;;;;;;4.63;4.33;;;11.00;99.90;;;;;;4968669;28;20214;-74
2024/02/17 03:15:01;;;;;;;4.50;4.20;;;11.00;99.90;;;;;;4968372;28;20261;-75
2024/02/17 03:17:30;;;;;;;4.53;4.23;;;11.00;99.90;;;;;;4968815;28;20210;-74
2024/02/17 03:19:57;;;;;;;5.10;4.70;;;11.00;99.90;;;;;;4968117;28;20261;-74
2024/02/17 03:22:24;;;;;;;5.03;4.63;;;11.00;99.90;;;;;;4968295;28;20254;-74
2024/02/17 03:24:51;;;;;;;5.23;4.80;;;11.00;99.90;;;;;;4967693;28;20282;-75
2024/02/17 03:27:18;;;;;;;4.87;4.57;;;11.00;99.90;;;;;;4955282;28;20206;-75
2024/02/17 03:29:45;;;;;;;5.30;4.90;;;11.00;99.90;;;;;;4964796;28;20307;-74
2024/02/17 03:32:12;;;;;;;5.23;4.90;;;11.00;99.90;;;;;;4952966;28;20239;-75
2024/02/17 03:34:41;;;;;;;5.20;4.80;;;11.00;99.90;;;;;;4963068;28;20741;-74
2024/02/17 03:37:08;;;;;;;5.53;4.93;;;11.10;99.90;;;;;;4948693;29;20697;-74
2024/02/17 03:39:35;;;;;;;5.47;5.07;;;11.10;99.90;;;;;;4948951;29;20777;-74
2024/02/17 03:42:02;;;;;;;5.90;5.40;;;11.10;99.90;;;;;;4948805;29;20247;-75
2024/02/17 03:44:29;;;;;;;5.33;4.93;;;11.10;99.90;;;;;;4948991;29;20239;-75
2024/02/17 03:46:55;;;;;;;5.83;5.33;;;11.10;99.90;;;;;;4949006;28;20246;-75
2024/02/17 03:49:24;;;;;;;5.93;5.43;;;11.10;99.90;;;;;;4948707;28;20274;-74
2024/02/17 03:51:52;;;;;;;5.77;5.37;;;11.10;99.90;;;;;;4949672;28;20207;-74
2024/02/17 03:54:19;;;;;;;6.00;5.60;;;11.10;99.90;;;;;;4949100;28;20306;-76
2024/02/17 03:56:46;;;;;;;5.77;5.33;;;11.10;99.90;;;;;;4964182;28;20296;-77
2024/02/17 03:59:13;;;;;;;6.23;5.63;;;11.10;99.90;;;;;;4968481;28;20262;-77
2024/02/17 04:01:40;;;;;;;5.90;5.50;;;11.10;99.90;;;;;;4967247;28;20285;-76
2024/02/17 04:04:07;;;;;;;6.33;5.83;;;11.10;99.90;;;;;;4959470;28;20326;-76
2024/02/17 04:06:34;;;;;;;5.70;5.20;;;11.10;99.90;;;;;;4968343;28;20238;-77
2024/02/17 04:09:02;;;;;;;5.90;5.40;;;11.10;99.90;;;;;;4968275;28;20249;-76
2024/02/17 04:11:29;;;;;;;6.30;5.80;;;11.10;99.90;;;;;;4968660;28;20293;-76
2024/02/17 04:13:57;;;;;;;7.07;6.40;;;11.10;99.90;;;;;;4968468;28;20269;-76
2024/02/17 04:16:24;;;;;;;6.33;5.73;;;11.00;99.90;;;;;;4968248;28;20242;-76
2024/02/17 04:18:51;;;;;;;6.00;5.50;;;11.00;99.90;;;;;;4968495;28;20246;-76
2024/02/17 04:21:17;;;;;;;6.53;6.03;;;11.00;99.90;;;;;;4967680;28;20596;-76
2024/02/17 04:23:45;;;;;;;6.47;5.97;;;11.00;99.90;;;;;;4967887;28;20289;-76
2024/02/17 04:26:14;;;;;;;6.57;5.97;;;11.00;99.90;;;;;;4967829;28;20750;-76
2024/02/17 04:28:41;;;;;;;6.13;5.63;;;10.90;99.90;;;;;;4961755;28;20199;-75
2024/02/17 04:31:08;;;;;;;5.77;5.13;;;11.00;99.90;;;;;;4949184;28;20211;-75
2024/02/17 04:33:37;;;;;;;6.00;5.50;;;10.90;99.90;;;;;;4952232;28;20734;-75
2024/02/17 04:36:04;;;;;;;5.77;5.27;;;10.90;99.90;;;;;;4965134;28;20232;-75
2024/02/17 04:38:31;;;;;;;6.20;5.80;;;10.80;99.90;;;;;;4971357;28;20210;-74
2024/02/17 04:40:58;;;;;;;6.33;5.90;;;10.80;99.90;;;;;;4971657;28;20289;-74
2024/02/17 04:43:29;;;;;;;7.47;5.90;;;10.80;99.90;;;;;;4971127;28;20242;-74
2024/02/17 04:45:56;;;;;;;6.03;5.20;;;10.80;99.90;;;;;;4971345;28;20203;-75
2024/02/17 04:48:23;;;;;;;6.03;5.40;;;10.80;99.90;;;;;;4971504;28;20278;-74
2024/02/17 04:50:50;;;;;;;6.23;5.37;;;10.80;99.90;;;;;;4971600;28;20636;-74
2024/02/17 04:53:18;;;;;;;5.90;5.40;;;10.70;99.90;;;;;;4970687;28;20249;-74
2024/02/17 04:55:45;;;;;;;6.07;5.47;;;10.80;99.90;;;;;;4969922;28;20207;-76
2024/02/17 04:58:16;;;;;;;6.00;5.37;;;10.70;99.90;;;;;;4968935;28;20399;-76
2024/02/17 05:00:46;;;;;;;5.90;5.33;;;10.70;99.90;;;;;;4971537;28;20826;-76
2024/02/17 05:03:14;;;;;;;5.60;5.10;;;10.70;99.90;;;;;;4971342;28;20237;-75
2024/02/17 05:05:42;;;;;;;5.60;5.10;;;10.80;99.90;;;;;;4960602;28;20282;-75
2024/02/17 05:08:09;;;;;;;5.40;4.90;;;10.80;99.90;;;;;;4951374;28;20208;-76
2024/02/17 05:10:36;;;;;;;6.23;5.63;;;10.70;99.90;;;;;;4952153;28;20305;-76
2024/02/17 05:13:03;;;;;;;5.50;5.00;;;10.70;99.90;;;;;;4951727;28;20279;-76
2024/02/17 05:15:30;;;;;;;5.47;5.07;;;10.70;99.90;;;;;;4951880;28;20215;-75
2024/02/17 05:17:58;;;;;;;5.13;4.73;;;10.70;99.90;;;;;;4961584;28;20610;-76
2024/02/17 05:20:26;;;;;;;5.77;5.17;;;10.70;99.90;;;;;;4971032;28;20305;-76
2024/02/17 05:22:53;;;;;;;5.40;4.87;;;10.70;99.90;;;;;;4963048;28;20290;-75
2024/02/17 05:25:20;;;;;;;6.00;5.20;;;10.60;99.90;;;;;;4951422;28;20294;-76
2024/02/17 05:27:47;;;;;;;5.63;5.00;;;10.60;99.90;;;;;;4951707;28;20290;-76
2024/02/17 05:30:15;;;;;;;5.03;4.50;;;10.50;99.90;;;;;;4951635;28;20298;-76
2024/02/17 05:32:42;;;;;;;5.13;4.57;;;10.50;99.90;;;;;;4970394;28;20303;-76
2024/02/17 05:35:10;;;;;;;5.40;4.90;;;10.50;99.90;;;;;;4964427;28;20845;-75
2024/02/17 05:37:37;;;;;;;5.70;5.17;;;10.50;99.90;;;;;;4951146;29;20286;-75
2024/02/17 05:40:06;;;;;;;5.03;4.63;;;10.50;99.90;;;;;;4951310;28;20306;-75
2024/02/17 05:42:34;;;;;;;4.90;4.50;;;10.50;99.90;;;;;;4950865;28;20207;-75
2024/02/17 05:45:01;;;;;;;5.13;4.60;;;10.50;99.90;;;;;;4951194;28;20591;-76
2024/02/17 05:47:27;;;;;;;5.23;4.57;;;10.50;99.90;;;;;;4951571;28;20235;-75
2024/02/17 05:49:55;;;;;;;4.93;4.37;;;10.40;99.90;;;;;;4965684;28;20221;-76
2024/02/17 05:52:23;;;;;;;5.37;4.73;;;10.40;99.90;;;;;;4951315;28;20207;-76
2024/02/17 05:54:50;;;;;;;6.27;4.90;;;10.50;99.90;;;;;;4951274;28;20310;-75
2024/02/17 05:57:17;;;;;;;5.53;4.30;;;10.50;99.90;;;;;;4963521;28;20968;-76
2024/02/17 05:59:44;;;;;;;4.67;4.20;;;10.50;99.90;;;;;;4970332;28;20213;-76
2024/02/17 06:02:11;;;;;;;4.60;4.20;;;10.50;99.90;;;;;;4953132;28;20649;-75
2024/02/17 06:04:38;;;;;;;4.70;4.30;;;10.60;99.90;;;;;;4952842;28;20263;-76
2024/02/17 06:07:05;;;;;;;4.40;4.10;;;10.60;99.90;;;;;;4970244;28;20245;-76
2024/02/17 06:09:33;;;;;;;4.40;4.00;;;10.50;99.90;;;;;;4970017;28;20306;-76
2024/02/17 06:12:00;;;;;;;4.83;4.40;;;10.50;99.90;;;;;;4970157;28;20317;-76
2024/02/17 06:14:27;;;;;;;4.37;4.00;;;10.50;99.90;;;;;;4969927;28;20219;-76
2024/02/17 06:16:54;;;;;;;4.53;4.13;;;10.50;99.90;;;;;;4969600;28;20238;-75
2024/02/17 06:22:05;;;;;;;4.43;4.03;;;10.40;99.90;;;;;;4969694;28;20669;-77
2024/02/17 06:24:33;;;;;;;4.87;4.20;;;10.40;99.90;;;;;;4969568;28;20266;-76
2024/02/17 06:27:00;;;;;;;4.93;4.43;;;10.40;99.90;;;;;;4969598;28;20257;-76
2024/02/17 06:29:27;;;;;;;4.50;4.10;;;10.40;99.90;;;;;;4969781;28;20221;-76
2024/02/17 06:31:54;;;;;;;5.67;4.30;;;10.40;99.90;;;;;;4969655;28;20558;-76
2024/02/17 06:34:21;;;;;;;5.10;4.40;;;10.30;99.90;;;;;;4969828;28;21092;-75
2024/02/17 06:36:47;;;;;;;5.13;4.37;;;10.30;99.90;;;;;;4950524;28;20298;-75
2024/02/17 06:39:14;;;;;;;5.20;4.73;;;10.30;99.90;;;;;;4950388;28;20235;-75
2024/02/17 06:41:42;;;;;;;4.70;4.30;;;10.30;99.90;;;;;;4950530;28;20235;-75
2024/02/17 06:44:09;;;;;;;5.17;4.60;;;10.30;99.90;;;;;;4954404;28;20305;-75
2024/02/17 06:46:36;;;;;;;5.83;4.87;;;10.30;99.90;;;;;;4968395;28;20294;-75
2024/02/17 06:49:03;;;;;;;6.70;4.27;;;10.30;99.90;;;;;;4969246;28;20305;-75
2024/02/17 06:51:30;;;;;;;7.03;4.97;;;10.30;99.90;;;;;;4969287;28;20215;-76
2024/02/17 06:53:57;;;;;;;5.17;4.50;;;10.30;99.90;;;;;;4968662;28;20221;-76
2024/02/17 06:56:24;;;;;;;8.40;5.73;;;10.30;99.90;;;;;;4966822;28;20303;-75
2024/02/17 06:58:52;;;;;;;4.90;4.47;;;10.30;99.90;;;;;;4969413;28;20297;-75
2024/02/17 07:01:19;;;;;;;3.93;3.63;;;10.30;99.90;;;;;;4967501;28;20665;-76
2024/02/17 07:03:47;;;;;;;4.53;4.17;;;10.30;99.90;;;;;;4969414;28;20238;-76
2024/02/17 07:06:16;;;;;;;6.17;3.60;;;10.30;99.90;;;;;;4954489;28;20333;-75
2024/02/17 07:08:46;;;;;;;3.67;3.33;;;10.30;99.90;;;;;;4949945;29;20670;-75
2024/02/17 07:11:13;;;;;;;3.80;3.40;;;10.30;99.90;;;;;;4949904;28;20208;-75
2024/02/17 07:13:40;;;;;;;3.87;3.57;;;10.30;99.90;;;;;;4949989;28;20204;-75
2024/02/17 07:16:08;;;;;;;4.03;3.33;;;10.30;99.90;;;;;;4949471;28;20504;-75
2024/02/17 07:18:37;;;;;;;5.07;4.60;;;10.20;99.90;;;;;;4949653;28;20266;-75
2024/02/17 07:21:05;;;;;;;8.37;6.10;;;10.20;99.90;;;;;;4949111;28;20741;-75
2024/02/17 07:23:32;;;;;;;8.70;5.40;;;10.20;99.90;;;;;;4949193;28;20326;-75
2024/02/17 07:25:58;;;;;;;4.00;3.70;;;10.20;99.90;;;;;;4949466;28;20232;-75
2024/02/17 07:28:25;;;;;;;4.10;3.70;;;10.20;99.90;;;;;;4949200;28;20760;-75
2024/02/17 07:30:52;;;;;;;4.27;3.87;;;10.20;99.90;;;;;;4949311;28;20302;-75
2024/02/17 07:33:20;;;;;;;5.40;4.00;;;10.20;99.90;;;;;;4949460;28;20306;-75
2024/02/17 07:35:49;;;;;;;8.33;4.60;;;10.20;99.90;;;;;;4960674;28;20708;-74
2024/02/17 07:38:16;;;;;;;4.23;3.80;;;10.20;99.90;;;;;;4968493;28;20567;-74
2024/02/17 07:40:43;;;;;;;3.47;3.20;;;10.30;99.90;;;;;;4964175;28;20294;-74
2024/02/17 07:43:09;;;;;;;4.90;3.40;;;10.30;99.90;;;;;;4955973;28;20246;-74
2024/02/17 07:45:37;;;;;;;4.00;3.60;;;10.20;99.90;;;;;;4948945;28;20310;-74
2024/02/17 07:48:04;;;;;;;4.33;3.77;;;10.30;99.90;;;;;;4949152;28;20311;-74
2024/02/17 07:50:32;;;;;;;7.53;3.83;;;10.30;99.90;;;;;;4949150;28;20250;-74
2024/02/17 07:52:59;;;;;;;4.70;3.40;;;10.30;99.90;;;;;;4953008;28;20217;-74
2024/02/17 07:55:26;;;;;;;4.87;3.50;;;10.30;99.90;;;;;;4968549;28;20669;-74
2024/02/17 07:57:53;;;;;;;3.00;2.70;;;10.30;99.90;;;;;;4968278;28;20207;-74
2024/02/17 08:00:20;;;;;;;2.80;2.60;;;10.30;99.90;;;;;;4968351;28;20302;-74
2024/02/17 08:02:47;;;;;;;2.60;2.37;;;10.30;99.90;;;;;;4968070;28;20681;-74
2024/02/17 08:05:14;;;;;;;4.93;3.13;;;10.30;99.90;;;;;;4968037;28;20373;-75
2024/02/17 08:07:43;;;;;;;3.17;2.73;;;10.30;99.90;;;;;;4967723;28;20207;-74
2024/02/17 08:10:11;;;;;;;3.37;2.60;;;10.40;99.90;;;;;;4951878;28;20742;-75
2024/02/17 08:12:38;;;;;;;3.20;2.13;;;10.40;99.90;;;;;;4949057;28;20238;-76
2024/02/17 08:15:06;;;;;;;7.77;5.07;;;10.40;99.90;;;;;;4948729;28;20294;-76
2024/02/17 08:17:34;;;;;;;4.07;2.73;;;10.50;99.90;;;;;;4949076;28;20219;-74
2024/02/17 08:20:01;;;;;;;3.00;2.20;;;10.50;99.90;;;;;;4948728;28;20218;-74
2024/02/17 08:22:28;;;;;;;2.63;1.90;;;10.50;99.90;;;;;;4948591;28;20343;-75
2024/02/17 08:24:56;;;;;;;3.53;1.90;;;10.60;99.90;;;;;;4948471;28;20737;-75
2024/02/17 08:27:23;;;;;;;3.10;2.20;;;10.60;99.90;;;;;;4948839;28;20218;-75
2024/02/17 08:29:50;;;;;;;3.93;2.10;;;10.60;99.90;;;;;;4948805;28;20737;-75
2024/02/17 08:32:17;;;;;;;1.80;1.50;;;10.60;99.90;;;;;;4949871;28;20203;-75
2024/02/17 08:34:44;;;;;;;2.77;1.97;;;10.70;99.90;;;;;;4961195;28;20306;-77
2024/02/17 08:37:12;;;;;;;2.40;1.10;;;10.70;99.90;;;;;;4960474;28;20678;-78
2024/02/17 08:39:39;;;;;;;2.70;1.30;;;10.70;99.90;;;;;;4968295;28;20214;-78
2024/02/17 08:42:08;;;;;;;1.33;1.23;;;10.70;99.90;;;;;;4968087;28;20213;-78
2024/02/17 08:44:37;;;;;;;2.30;1.20;;;10.70;99.90;;;;;;4962204;28;20203;-78
2024/02/17 08:47:04;;;;;;;4.40;2.33;;;10.70;99.90;;;;;;4952428;28;20242;-78
2024/02/17 08:49:31;;;;;;;1.27;1.10;;;10.70;99.90;;;;;;4955227;28;20307;-78
2024/02/17 08:51:58;;;;;;;2.37;1.00;;;10.60;99.90;;;;;;4967423;28;20217;-78
2024/02/17 08:54:26;;;;;;;2.00;1.10;;;10.60;99.90;;;;;;4968036;28;20293;-77
2024/02/17 08:56:53;;;;;;;3.60;1.40;;;10.60;99.90;;;;;;4967809;28;20310;-77
2024/02/17 08:59:22;;;;;;;2.40;1.10;;;10.60;99.90;;;;;;4949475;28;20207;-75
2024/02/17 09:01:48;;;;;;;1.27;1.13;;;10.60;99.90;;;;;;4967950;28;20211;-76
2024/02/17 09:04:15;;;;;;;1.77;1.00;;;10.70;99.90;;;;;;4967701;28;20253;-75
2024/02/17 09:06:42;;;;;;;1.10;1.00;;;10.60;99.90;;;;;;4949411;28;20259;-75
2024/02/17 09:09:09;;;;;;;0.97;0.90;;;10.50;99.90;;;;;;4948638;29;20212;-75
2024/02/17 09:11:36;;;;;;;1.27;0.60;;;10.40;99.90;;;;;;4948636;29;20253;-75
2024/02/17 09:14:03;;;;;;;2.53;0.70;;;10.30;99.90;;;;;;4948178;28;20770;-75
2024/02/17 09:16:31;;;;;;;0.70;0.70;;;10.30;99.90;;;;;;4948335;28;20219;-74
2024/02/17 09:18:58;;;;;;;1.13;0.67;;;10.30;99.90;;;;;;4951603;29;20243;-74
2024/02/17 09:21:25;;;;;;;1.07;0.60;;;10.30;99.90;;;;;;4951725;29;20303;-74
2024/02/17 09:23:52;;;;;;;1.90;0.70;;;10.30;99.90;;;;;;4951490;28;20766;-74
2024/02/17 09:26:19;;;;;;;0.83;0.40;;;10.30;99.90;;;;;;4961473;28;20322;-74
2024/02/17 09:28:46;;;;;;;0.63;0.63;;;10.30;99.90;;;;;;4970985;28;20580;-74
2024/02/17 09:31:13;;;;;;;0.70;0.67;;;10.40;99.90;;;;;;4970639;28;20963;-74
2024/02/17 09:33:41;;;;;;;0.90;0.30;;;10.50;99.90;;;;;;4970738;28;20215;-75
2024/02/17 09:36:08;;;;;;;0.70;0.60;;;10.50;99.90;;;;;;4970761;28;20291;-76
2024/02/17 09:38:35;;;;;;;0.60;0.60;;;10.60;99.90;;;;;;4971054;28;20255;-73
2024/02/17 09:41:02;;;;;;;1.13;0.50;;;10.60;99.90;;;;;;4970544;28;20301;-76
2024/02/17 09:43:30;;;;;;;0.40;0.40;;;10.60;99.90;;;;;;4970799;28;20207;-77
2024/02/17 09:45:57;;;;;;;0.50;0.50;;;10.60;99.90;;;;;;4970907;28;20293;-76
2024/02/17 09:48:25;;;;;;;1.67;0.60;;;10.60;99.90;;;;;;4958425;28;20231;-76
2024/02/17 09:50:55;;;;;;;1.33;0.40;;;10.60;99.90;;;;;;4949960;28;20211;-76
2024/02/17 09:53:23;;;;;;;1.70;0.60;;;10.60;99.90;;;;;;4953595;28;20203;-76
2024/02/17 09:55:50;;;;;;;1.23;0.90;;;10.60;99.90;;;;;;4968544;28;20247;-76
2024/02/17 09:58:17;;;;;;;0.87;0.40;;;10.70;99.90;;;;;;4968788;28;20213;-76
2024/02/17 10:00:44;;;;;;;1.70;0.60;;;11.00;99.90;;;;;;4968703;28;20222;-76
2024/02/17 10:03:11;;;;;;;0.40;0.40;;;11.20;99.90;;;;;;4968800;28;20213;-76
2024/02/17 10:05:38;;;;;;;0.50;0.50;;;11.10;99.90;;;;;;4959055;28;20702;-76
2024/02/17 10:08:07;;;;;;;1.43;0.60;;;11.20;99.90;;;;;;4949359;28;20207;-77
2024/02/17 10:10:36;;;;;;;0.83;0.50;;;11.30;99.90;;;;;;4949274;28;21064;-76
2024/02/17 10:13:03;;;;;;;0.60;0.37;;;11.30;99.90;;;;;;4949017;29;20298;-76
2024/02/17 10:15:32;;;;;;;0.60;0.30;;;11.30;99.90;;;;;;4949102;29;20306;-76
2024/02/17 10:17:59;;;;;;;0.70;0.40;;;11.30;99.90;;;;;;4948828;28;20218;-76
2024/02/17 10:20:26;;;;;;;0.60;0.60;;;11.00;99.90;;;;;;4948865;28;20207;-76
2024/02/17 10:22:53;;;;;;;0.57;0.40;;;11.00;99.90;;;;;;4967940;28;20277;-76
2024/02/17 10:25:21;;;;;;;0.80;0.70;;;10.90;99.90;;;;;;4967987;28;20195;-76
2024/02/17 10:27:48;;;;;;;0.40;0.33;;;10.70;99.90;;;;;;4968195;28;20310;-77
2024/02/17 10:30:17;;;;;;;0.70;0.70;;;10.70;99.90;;;;;;4967092;28;20274;-76
2024/02/17 10:32:44;;;;;;;4.43;0.50;;;10.90;99.90;;;;;;4969527;28;20273;-76
2024/02/17 10:35:12;;;;;;;0.40;0.40;;;10.90;99.90;;;;;;4967423;28;20309;-76
2024/02/17 10:37:40;;;;;;;0.73;0.47;;;11.10;99.90;;;;;;4967881;28;20329;-75
2024/02/17 10:40:09;;;;;;;0.50;0.50;;;11.30;99.90;;;;;;4967633;28;20302;-76
2024/02/17 10:42:38;;;;;;;0.67;0.60;;;11.40;99.90;;;;;;4966920;28;20290;-76
2024/02/17 10:45:06;;;;;;;0.30;0.30;;;11.80;99.90;;;;;;4968055;28;20301;-76
2024/02/17 10:47:36;;;;;;;0.33;0.33;;;12.00;99.90;;;;;;4962279;28;20239;-76
2024/02/17 10:50:12;;;;;;;0.40;0.40;;;12.00;99.90;;;;;;4949118;28;20298;-76
2024/02/17 10:52:43;;;;;;;0.20;0.20;;;12.10;99.90;;;;;;4948755;28;20199;-76
2024/02/17 10:55:12;;;;;;;0.70;0.70;;;11.90;99.90;;;;;;4948456;29;20748;-76
2024/02/17 10:57:52;;;;;;;0.60;0.40;;;11.90;99.90;;;;;;4948199;29;20788;-76
2024/02/17 11:00:20;;;;;;;0.33;0.33;;;11.90;99.90;;;;;;4954566;28;20285;-76
2024/02/17 11:02:49;;;;;;;0.20;0.20;;;11.80;99.90;;;;;;4967586;28;20704;-76
2024/02/17 11:05:17;;;;;;;0.43;0.40;;;12.00;99.90;;;;;;4960392;28;20226;-76
2024/02/17 11:07:45;;;;;;;0.40;0.40;;;11.90;99.90;;;;;;4947862;28;20654;-76
2024/02/17 11:10:13;;;;;;;0.77;0.30;;;11.70;99.90;;;;;;4947912;29;20218;-75
2024/02/17 11:12:48;;;;;;;0.37;0.20;;;11.60;99.90;;;;;;4949609;28;20226;-75
2024/02/17 11:15:15;;;;;;;0.27;0.13;;;11.30;99.90;;;;;;4959176;28;20290;-76
2024/02/17 11:17:44;;;;;;;0.77;0.30;;;11.50;99.90;;;;;;4959189;28;20208;-76
2024/02/17 11:20:12;;;;;;;0.27;0.23;;;11.70;99.90;;;;;;4955951;28;20296;-76
2024/02/17 11:22:41;;;;;;;0.63;0.57;;;11.70;99.90;;;;;;4956859;28;20235;-76
2024/02/17 11:25:10;;;;;;;0.87;0.60;;;11.50;99.90;;;;;;4960758;28;20259;-76
2024/02/17 11:27:41;;;;;;;0.47;0.30;;;11.30;99.90;;;;;;4958327;28;20243;-76
2024/02/17 11:30:11;;;;;;;0.60;0.60;;;11.10;99.90;;;;;;4965823;28;20202;-77
2024/02/17 11:32:39;;;;;;;0.40;0.40;;;11.00;99.90;;;;;;4966995;28;20213;-76
2024/02/17 11:35:08;;;;;;;0.87;0.50;;;10.90;99.90;;;;;;4961591;28;20219;-76
2024/02/17 11:37:38;;;;;;;0.50;0.50;;;10.80;99.90;;;;;;4947512;29;20242;-75
2024/02/17 11:40:08;;;;;;;1.53;0.60;;;10.80;99.90;;;;;;4947298;28;20212;-76
2024/02/17 11:42:35;;;;;;;0.80;0.80;;;10.90;99.90;;;;;;4947642;29;20215;-76
2024/02/17 11:45:04;;;;;;;1.77;0.80;;;11.00;99.90;;;;;;4947660;28;20294;-75
2024/02/17 11:47:32;;;;;;;0.83;0.80;;;11.30;99.90;;;;;;4947279;29;20250;-75
2024/02/17 11:50:14;;;;;;;2.43;1.07;;;11.30;99.90;;;;;;4947245;29;20667;-75
2024/02/17 11:52:41;;;;;;;1.57;1.00;;;11.30;99.90;;;;;;4946782;28;20251;-75
2024/02/17 11:55:11;;;;;;;2.00;1.00;;;11.30;99.90;;;;;;4948531;28;20310;-75
2024/02/17 11:57:40;;;;;;;1.97;1.00;;;11.20;99.90;;;;;;4966426;28;20668;-75
2024/02/17 12:00:11;;;;;;;2.20;1.10;;;11.10;99.90;;;;;;4966447;28;20584;-75
2024/02/17 12:02:43;;;;;;;2.70;1.00;;;11.20;99.90;;;;;;4966227;28;20257;-75
2024/02/17 12:05:10;;;;;;;1.30;0.80;;;11.30;99.90;;;;;;4960337;28;20211;-75
2024/02/17 12:07:37;;;;;;;2.50;1.00;;;11.30;99.90;;;;;;4947073;29;20242;-75
2024/02/17 12:10:05;;;;;;;1.27;1.00;;;11.50;99.90;;;;;;4964555;28;20294;-75
2024/02/17 12:12:32;;;;;;;1.70;1.03;;;11.50;99.90;;;;;;4966812;28;21002;-75
2024/02/17 12:14:59;;;;;;;3.03;1.50;;;11.50;99.90;;;;;;4966568;28;20207;-75
2024/02/17 12:17:26;;;;;;;2.33;0.90;;;11.50;99.90;;;;;;4966399;28;20232;-75
2024/02/17 12:19:54;;;;;;;3.23;0.93;;;11.40;99.90;;;;;;4966050;28;20904;-75
2024/02/17 12:22:22;;;;;;;2.97;1.03;;;11.40;99.90;;;;;;4965905;28;20213;-74
2024/02/17 12:24:49;;;;;;;2.60;1.23;;;11.30;99.90;;;;;;4964461;28;20243;-76
2024/02/17 12:27:17;;;;;;;2.13;1.20;;;11.30;99.90;;;;;;4965771;28;20612;-75
2024/02/17 12:29:50;;;;;;;4.03;1.40;;;11.30;99.90;;;;;;4966625;28;20207;-75
2024/02/17 12:32:21;;;;;;;1.13;0.93;;;11.30;99.90;;;;;;4966330;28;20257;-74
2024/02/17 12:34:50;;;;;;;2.30;1.33;;;11.30;99.90;;;;;;4965798;28;20198;-74
2024/02/17 12:37:18;;;;;;;4.13;1.20;;;11.20;99.90;;;;;;4965691;28;20985;-75
2024/02/17 12:39:46;;;;;;;3.67;1.27;;;11.20;99.90;;;;;;4966009;28;20305;-76
2024/02/17 12:42:13;;;;;;;3.20;1.10;;;11.20;99.90;;;;;;4966026;28;20222;-75
2024/02/17 12:44:40;;;;;;;5.00;1.57;;;11.10;99.90;;;;;;4966252;28;20206;-75
2024/02/17 12:47:16;;;;;;;1.90;1.10;;;11.10;99.90;;;;;;4963534;28;20249;-75
2024/02/17 12:49:43;;;;;;;3.30;1.50;;;11.10;99.90;;;;;;4946840;29;20298;-75
2024/02/17 12:52:10;;;;;;;6.57;1.30;;;11.10;99.90;;;;;;4947683;28;20215;-75